Overview Statistics Trail Chart Weather Telemetry Raw packets
 

This is the latest recevied weather packets stored in our database for station/object DH9SB-6. If no packets are shown the sender has not sent any weather packets the latest 10 day(s).

<< 1 2 3 4 >>
Time Temp. Humidity Pressure Rain* Wind** Luminosity Snow
1788273753 23.89° C 44% - 0 mm - - -
1788273371 23.89° C 43% - 0 mm - - -
1788272312 25° C 41% - 0 mm - - -
1788271063 26.11° C 41% - 0 mm - - -
1788270487 25.56° C 43% - 0 mm - - -
1788269623 23.89° C 43% - 0 mm - - -
1788268952 24.44° C 43% - 0 mm - - -
1788268472 24.44° C 43% - 0 mm - - -
1788267753 23.89° C 43% - 0 mm - - -
1788267175 24.44° C 42% - 0 mm - - -
1788266551 25° C 42% - 0 mm - - -
1788266263 25° C 42% - 0 mm - - -
1788264824 24.44° C 43% - 0 mm - - -
1788263863 23.33° C 45% - 0 mm - - -
1788263335 24.44° C 43% - 0 mm - - -
1788260313 23.89° C 45% - 0 mm - - -
1788258680 23.33° C 50% - 0 mm - - -
1788255896 22.22° C 55% - 0 mm - - -
1788255319 22.22° C 53% - - - - -
1788198200 19.44° C 67% - 0 mm - - -
1788197673 20° C 65% - - - - -
1788193977 20.56° C 69% - 0 mm - - -
1788193257 20.56° C 66% - 0 mm - - -
1788192584 20.56° C 66% - 0 mm - - -
1788191865 21.11° C 64% - 0 mm - - -

* Rain latest hour (hover to see other rain measurements)
** Current wind speed in m/s (hover to see current wind gust speed)